createdAt,value
2022-09-12T00:00:52.153Z,12.80
2022-09-12T00:03:19.113Z,13.93
2022-09-12T00:05:47.791Z,14.00
2022-09-12T00:08:15.559Z,11.30
2022-09-12T00:10:44.230Z,12.77
2022-09-12T00:13:11.846Z,15.97
2022-09-12T00:15:44.363Z,13.87
2022-09-12T00:18:16.917Z,11.70
2022-09-12T00:20:47.829Z,11.77
2022-09-12T00:23:15.063Z,13.83
2022-09-12T00:25:47.594Z,14.27
2022-09-12T00:28:17.209Z,15.47
2022-09-12T00:30:47.991Z,18.73
2022-09-12T00:33:17.733Z,12.50
2022-09-12T00:35:52.756Z,13.60
2022-09-12T00:38:20.587Z,12.27
2022-09-12T00:40:48.823Z,12.03
2022-09-12T00:43:46.006Z,14.27
2022-09-12T00:46:43.217Z,17.00
2022-09-12T00:49:33.530Z,14.30
2022-09-12T00:52:12.362Z,14.87
2022-09-12T00:55:00.190Z,13.43
2022-09-12T00:57:35.800Z,15.87
2022-09-12T01:00:16.495Z,17.63
2022-09-12T01:02:56.318Z,13.23
2022-09-12T01:05:26.647Z,18.53
2022-09-12T01:07:56.294Z,14.87
2022-09-12T01:10:24.768Z,14.03
2022-09-12T01:12:51.884Z,14.10
2022-09-12T01:15:19.018Z,15.67
2022-09-12T01:18:09.204Z,14.37
2022-09-12T01:21:01.250Z,16.13
2022-09-12T01:23:48.882Z,16.80
2022-09-12T01:26:50.268Z,16.77
2022-09-12T01:30:10.851Z,14.93
2022-09-12T01:33:05.205Z,15.87
2022-09-12T01:36:29.557Z,20.07
2022-09-12T01:39:53.356Z,17.37
2022-09-12T01:42:41.947Z,15.03
2022-09-12T01:45:38.382Z,18.27
2022-09-12T01:48:26.445Z,17.13
2022-09-12T01:51:07.496Z,17.87
2022-09-12T01:53:42.826Z,21.80
2022-09-12T01:56:32.923Z,17.97
2022-09-12T01:59:16.924Z,19.33
2022-09-12T02:01:56.057Z,20.23
2022-09-12T02:04:37.602Z,17.00
2022-09-12T02:07:44.960Z,18.10
2022-09-12T02:10:20.326Z,22.37
2022-09-12T02:13:07.401Z,18.77
2022-09-12T02:15:44.482Z,18.67
2022-09-12T02:18:18.265Z,21.43
2022-09-12T02:20:49.403Z,16.10
2022-09-12T02:23:28.422Z,20.13
2022-09-12T02:26:03.628Z,17.47
2022-09-12T02:28:39.355Z,19.93
2022-09-12T02:31:44.893Z,19.60
2022-09-12T02:34:29.168Z,21.07
2022-09-12T02:37:25.910Z,18.43
2022-09-12T02:39:56.843Z,24.63
2022-09-12T02:42:27.753Z,20.53
2022-09-12T02:44:57.445Z,22.50
2022-09-12T02:47:34.249Z,19.83
2022-09-12T02:50:01.953Z,18.03
2022-09-12T02:52:29.710Z,18.90
2022-09-12T02:54:58.996Z,20.00
2022-09-12T02:57:26.024Z,20.97
2022-09-12T03:00:00.237Z,17.47
2022-09-12T03:03:11.113Z,18.93
2022-09-12T03:06:00.383Z,22.70
2022-09-12T03:08:39.879Z,17.27
2022-09-12T03:11:34.225Z,16.47
2022-09-12T03:14:22.073Z,19.73
2022-09-12T03:17:13.746Z,17.10
2022-09-12T03:19:53.050Z,19.03
2022-09-12T03:22:48.159Z,18.87
2022-09-12T03:25:47.364Z,17.47
2022-09-12T03:28:20.590Z,15.43
2022-09-12T03:30:51.446Z,14.37
2022-09-12T03:33:22.421Z,17.80
2022-09-12T03:35:50.940Z,15.53
2022-09-12T03:38:19.223Z,18.47
2022-09-12T03:40:49.344Z,18.27
2022-09-12T03:43:18.310Z,19.33
2022-09-12T03:45:45.121Z,14.70
2022-09-12T03:48:12.190Z,17.33
2022-09-12T03:50:38.985Z,17.37
2022-09-12T03:53:05.828Z,17.13
2022-09-12T03:55:32.641Z,16.73
2022-09-12T03:57:59.397Z,16.60
2022-09-12T04:00:26.446Z,18.10
2022-09-12T04:02:57.372Z,16.17
2022-09-12T04:05:25.754Z,14.97
2022-09-12T04:07:52.975Z,17.03
2022-09-12T04:10:20.271Z,14.37
2022-09-12T04:12:50.474Z,17.27
2022-09-12T04:15:17.499Z,17.30
2022-09-12T04:17:44.582Z,15.03
2022-09-12T04:20:11.354Z,13.20
2022-09-12T04:22:38.114Z,14.87
2022-09-12T04:25:05.878Z,15.10
2022-09-12T04:27:33.130Z,15.40
2022-09-12T04:30:01.928Z,15.43
2022-09-12T04:32:31.331Z,16.43
2022-09-12T04:34:58.269Z,15.03
2022-09-12T04:37:25.119Z,16.23
2022-09-12T04:39:55.977Z,19.13
2022-09-12T04:42:22.979Z,13.00
2022-09-12T04:44:49.910Z,18.20
2022-09-12T04:47:16.947Z,16.70
2022-09-12T04:49:43.728Z,17.60
2022-09-12T04:52:10.499Z,15.63
2022-09-12T04:54:37.953Z,24.03
2022-09-12T04:57:04.895Z,17.20
2022-09-12T04:59:31.586Z,17.23
2022-09-12T05:01:58.665Z,17.30
2022-09-12T05:04:25.438Z,17.03
2022-09-12T05:06:52.260Z,17.17
2022-09-12T05:09:19.095Z,15.80
2022-09-12T05:12:03.683Z,15.87
2022-09-12T05:14:33.004Z,17.10
2022-09-12T05:17:01.719Z,19.30
2022-09-12T05:19:30.638Z,17.63
2022-09-12T05:21:58.931Z,16.53
2022-09-12T05:24:25.971Z,16.00
2022-09-12T05:26:52.959Z,20.17
2022-09-12T05:29:19.938Z,18.00
2022-09-12T05:31:52.312Z,21.57
2022-09-12T05:34:20.385Z,20.40
2022-09-12T05:36:47.166Z,20.13
2022-09-12T05:39:14.143Z,18.07
2022-09-12T05:41:40.990Z,24.87
2022-09-12T05:44:12.612Z,23.57
2022-09-12T05:46:43.672Z,25.73
2022-09-12T05:49:13.310Z,21.67
2022-09-12T05:51:44.266Z,19.13
2022-09-12T05:54:17.278Z,19.83
2022-09-12T05:56:45.369Z,22.10
2022-09-12T05:59:19.388Z,24.33
2022-09-12T06:01:48.377Z,26.97
2022-09-12T06:04:15.875Z,22.77
2022-09-12T06:06:45.424Z,23.60
2022-09-12T06:09:15.527Z,26.33
2022-09-12T06:11:43.775Z,26.13
2022-09-12T06:14:13.147Z,25.33
2022-09-12T06:16:40.544Z,20.93
2022-09-12T06:19:13.932Z,20.47
2022-09-12T06:21:40.809Z,23.53
2022-09-12T06:24:07.746Z,24.03
2022-09-12T06:26:35.058Z,25.07
2022-09-12T06:29:02.129Z,24.20
2022-09-12T06:31:33.298Z,17.60
2022-09-12T06:34:03.991Z,21.43
2022-09-12T06:36:36.618Z,23.93
2022-09-12T06:39:11.029Z,22.07
2022-09-12T06:41:42.987Z,22.27
2022-09-12T06:44:20.390Z,27.17
2022-09-12T06:46:47.374Z,21.17
2022-09-12T06:49:14.875Z,21.83
2022-09-12T06:51:42.571Z,19.30
2022-09-12T06:54:13.171Z,22.90
2022-09-12T06:56:40.531Z,23.47
2022-09-12T06:59:07.297Z,20.13
2022-09-12T07:01:34.369Z,25.50
2022-09-12T07:04:04.102Z,20.20
2022-09-12T07:06:40.655Z,18.53
2022-09-12T07:09:11.426Z,17.00
2022-09-12T07:11:41.437Z,16.70
2022-09-12T07:14:11.982Z,19.87
2022-09-12T07:16:38.783Z,22.23
2022-09-12T07:19:08.168Z,20.25
2022-09-12T07:21:41.722Z,14.90
2022-09-12T07:24:10.641Z,16.77
2022-09-12T07:26:39.671Z,19.73
2022-09-12T07:29:35.241Z,18.88
2022-09-12T07:31:53.619Z,25.42
2022-09-12T07:34:20.309Z,16.73
2022-09-12T07:36:47.025Z,15.70
2022-09-12T07:39:13.756Z,17.70
2022-09-12T07:41:40.549Z,15.82
2022-09-12T07:44:07.446Z,17.25
2022-09-12T07:46:35.321Z,15.57
2022-09-12T07:49:02.977Z,17.52
2022-09-12T07:51:31.631Z,16.20
2022-09-12T07:53:59.469Z,15.13
2022-09-12T07:56:31.240Z,13.40
2022-09-12T07:58:59.561Z,16.27
2022-09-12T08:01:27.065Z,14.52
2022-09-12T08:03:59.512Z,17.02
2022-09-12T08:06:32.061Z,13.55
2022-09-12T08:08:59.919Z,14.88
2022-09-12T08:11:29.778Z,11.85
2022-09-12T08:13:58.125Z,10.63
2022-09-12T08:16:30.197Z,12.98
2022-09-12T08:18:58.080Z,15.90
2022-09-12T08:21:31.476Z,17.25
2022-09-12T08:24:04.254Z,15.65
2022-09-12T08:26:35.974Z,17.05
2022-09-12T08:29:04.133Z,12.98
2022-09-12T08:31:36.590Z,16.85
2022-09-12T08:34:05.486Z,16.00
2022-09-12T08:36:32.978Z,13.65
2022-09-12T08:39:04.634Z,12.70
2022-09-12T08:41:40.631Z,17.15
2022-09-12T08:44:36.280Z,12.27
2022-09-12T08:47:24.074Z,11.48
2022-09-12T08:50:12.186Z,11.77
2022-09-12T08:52:58.810Z,10.57
2022-09-12T08:55:36.768Z,11.52
2022-09-12T08:58:23.018Z,10.57
2022-09-12T09:01:17.601Z,9.40
2022-09-12T09:04:18.871Z,10.57
2022-09-12T09:07:42.314Z,10.88
2022-09-12T09:10:49.372Z,11.10
2022-09-12T09:14:05.630Z,12.02
2022-09-12T09:16:41.053Z,9.60
2022-09-12T09:19:26.875Z,8.23
2022-09-12T09:22:02.141Z,11.43
2022-09-12T09:24:50.598Z,12.68
2022-09-12T09:27:40.367Z,12.00
2022-09-12T09:30:21.503Z,11.35
2022-09-12T09:32:56.294Z,12.15
2022-09-12T09:35:52.246Z,13.15
2022-09-12T09:38:42.066Z,11.38
2022-09-12T09:41:27.200Z,17.45
2022-09-12T09:43:54.060Z,12.68
2022-09-12T09:46:20.936Z,13.52
2022-09-12T09:48:51.073Z,16.15
2022-09-12T09:51:28.654Z,14.43
2022-09-12T09:54:03.517Z,11.75
2022-09-12T09:56:40.730Z,12.82
2022-09-12T09:59:17.409Z,12.65
2022-09-12T10:01:57.510Z,11.18
2022-09-12T10:04:41.673Z,9.63
2022-09-12T10:07:19.801Z,8.18
2022-09-12T10:10:18.793Z,8.30
2022-09-12T10:12:45.906Z,9.20
2022-09-12T10:15:23.197Z,9.10
2022-09-12T10:17:51.284Z,8.40
2022-09-12T10:20:39.033Z,8.15
2022-09-12T10:23:40.250Z,7.80
2022-09-12T10:26:18.289Z,6.22
2022-09-12T10:28:53.986Z,6.85
2022-09-12T10:31:39.014Z,8.70
2022-09-12T10:34:05.939Z,8.88
2022-09-12T10:36:39.547Z,6.25
2022-09-12T10:39:07.256Z,7.57
2022-09-12T10:41:41.803Z,6.47
2022-09-12T10:44:18.881Z,6.30
2022-09-12T10:46:46.178Z,15.38
2022-09-12T10:49:39.935Z,7.63
2022-09-12T10:52:23.069Z,6.80
2022-09-12T10:54:54.302Z,7.13
2022-09-12T10:57:41.806Z,6.05
2022-09-12T11:00:19.861Z,6.13
2022-09-12T11:03:24.713Z,5.82
2022-09-12T11:06:01.751Z,5.93
2022-09-12T11:09:10.026Z,6.00
2022-09-12T11:12:40.768Z,4.82
2022-09-12T11:15:13.319Z,4.68
2022-09-12T11:17:45.574Z,3.80
2022-09-12T11:21:02.354Z,5.57
2022-09-12T11:24:02.611Z,8.05
2022-09-12T11:27:00.006Z,5.97
2022-09-12T11:29:54.953Z,8.20
2022-09-12T11:32:33.633Z,6.57
2022-09-12T11:35:27.883Z,4.97
2022-09-12T11:38:38.765Z,4.97
2022-09-12T11:41:37.820Z,9.48
2022-09-12T11:44:24.414Z,6.05
2022-09-12T11:46:52.214Z,5.43
2022-09-12T11:49:40.135Z,5.15
2022-09-12T11:52:33.754Z,5.13
2022-09-12T11:55:15.200Z,7.05
2022-09-12T11:57:49.162Z,5.65
2022-09-12T12:00:29.984Z,5.95
2022-09-12T12:03:31.259Z,5.10
2022-09-12T12:06:05.807Z,5.38
2022-09-12T12:08:39.391Z,6.53
2022-09-12T12:11:08.462Z,4.53
2022-09-12T12:13:55.621Z,5.38
2022-09-12T12:16:29.829Z,4.82
2022-09-12T12:19:00.738Z,6.63
2022-09-12T12:21:47.263Z,6.13
2022-09-12T12:24:21.861Z,5.82
2022-09-12T12:27:00.422Z,8.15
2022-09-12T12:29:43.540Z,3.80
2022-09-12T12:32:10.740Z,4.10
2022-09-12T12:34:38.533Z,4.50
2022-09-12T12:37:20.871Z,3.95
2022-09-12T12:39:51.237Z,4.25
2022-09-12T12:42:35.830Z,5.55
2022-09-12T12:45:26.728Z,3.53
2022-09-12T12:48:09.626Z,5.10
2022-09-12T12:50:36.804Z,3.80
2022-09-12T12:53:22.977Z,4.22
2022-09-12T12:55:56.182Z,5.25
2022-09-12T12:58:40.527Z,4.53
2022-09-12T13:01:10.165Z,4.97
2022-09-12T13:03:41.693Z,4.85
2022-09-12T13:06:25.691Z,4.63
2022-09-12T13:09:32.497Z,3.40
2022-09-12T13:12:27.459Z,5.07
2022-09-12T13:14:59.340Z,4.03
2022-09-12T13:17:44.269Z,3.80
2022-09-12T13:20:29.760Z,3.67
2022-09-12T13:22:58.239Z,3.72
2022-09-12T13:25:29.900Z,6.65
2022-09-12T13:28:20.641Z,3.08
2022-09-12T13:30:57.803Z,3.85
2022-09-12T13:34:00.113Z,3.90
2022-09-12T13:37:08.798Z,3.30
2022-09-12T13:40:17.082Z,3.83
2022-09-12T13:43:02.461Z,2.75
2022-09-12T13:45:29.151Z,2.83
2022-09-12T13:48:02.478Z,3.20
2022-09-12T13:50:47.003Z,4.80
2022-09-12T13:53:19.420Z,3.20
2022-09-12T13:55:59.635Z,2.95
2022-09-12T13:58:30.257Z,4.25
2022-09-12T14:01:12.302Z,2.78
2022-09-12T14:04:13.184Z,3.13
2022-09-12T14:06:53.358Z,2.72
2022-09-12T14:09:34.599Z,4.03
2022-09-12T14:12:02.438Z,2.75
2022-09-12T14:14:42.337Z,4.22
2022-09-12T14:17:24.088Z,2.97
2022-09-12T14:19:52.733Z,4.07
2022-09-12T14:22:19.773Z,2.67
2022-09-12T14:24:50.437Z,3.30
2022-09-12T14:27:26.833Z,3.40
2022-09-12T14:30:02.650Z,4.32
2022-09-12T14:32:31.054Z,3.38
2022-09-12T14:35:19.725Z,2.65
2022-09-12T14:37:50.148Z,3.58
2022-09-12T14:40:21.513Z,3.10
2022-09-12T14:42:51.575Z,2.88
2022-09-12T14:45:30.097Z,13.85
2022-09-12T14:47:58.775Z,3.38
2022-09-12T14:50:29.646Z,2.60
2022-09-12T14:53:18.883Z,2.72
2022-09-12T14:55:53.706Z,2.70
2022-09-12T14:58:20.502Z,2.80
2022-09-12T15:01:05.507Z,4.72
2022-09-12T15:03:43.889Z,2.55
2022-09-12T15:06:39.510Z,1.80
2022-09-12T15:09:12.410Z,2.30
2022-09-12T15:11:39.551Z,2.17
2022-09-12T15:14:15.792Z,2.00
2022-09-12T15:16:45.060Z,2.72
2022-09-12T15:19:11.794Z,2.47
2022-09-12T15:21:38.573Z,2.20
2022-09-12T15:24:05.464Z,3.78
2022-09-12T15:26:32.211Z,3.78
2022-09-12T15:29:02.515Z,3.25
2022-09-12T15:31:31.812Z,2.03
2022-09-12T15:34:01.609Z,2.08
2022-09-12T15:36:29.297Z,1.80
2022-09-12T15:38:56.635Z,1.92
2022-09-12T15:41:37.964Z,2.45
2022-09-12T15:44:12.247Z,3.15
2022-09-12T15:46:39.366Z,2.40
2022-09-12T15:49:07.136Z,2.08
2022-09-12T15:51:34.165Z,5.05
2022-09-12T15:54:05.927Z,2.08
2022-09-12T15:56:32.830Z,1.80
2022-09-12T15:59:00.767Z,2.30
2022-09-12T16:01:28.840Z,2.88
2022-09-12T16:03:56.037Z,2.10
2022-09-12T16:06:23.394Z,6.75
2022-09-12T16:08:50.388Z,11.85
2022-09-12T16:11:27.148Z,2.60
2022-09-12T16:13:55.947Z,2.40
2022-09-12T16:16:22.761Z,2.33
2022-09-12T16:18:49.641Z,3.53
2022-09-12T16:21:16.569Z,3.05
2022-09-12T16:23:45.353Z,2.50
2022-09-12T16:26:12.075Z,2.47
2022-09-12T16:28:42.441Z,2.10
2022-09-12T16:31:13.458Z,2.00
2022-09-12T16:33:40.929Z,2.88
2022-09-12T16:36:14.885Z,1.95
2022-09-12T16:38:47.745Z,2.90
2022-09-12T16:41:16.905Z,2.63
2022-09-12T16:43:45.472Z,2.10
2022-09-12T16:46:16.576Z,2.35
2022-09-12T16:48:52.405Z,2.20
2022-09-12T16:51:30.226Z,2.85
2022-09-12T16:53:57.313Z,2.97
2022-09-12T16:56:24.826Z,1.77
2022-09-12T16:58:53.146Z,1.85
2022-09-12T17:01:26.221Z,2.00
2022-09-12T17:03:56.580Z,1.77
2022-09-12T17:06:25.170Z,2.00
2022-09-12T17:08:55.321Z,1.75
2022-09-12T17:11:26.930Z,2.55
2022-09-12T17:14:05.279Z,2.05
2022-09-12T17:16:36.715Z,2.35
2022-09-12T17:19:04.883Z,3.05
2022-09-12T17:21:31.812Z,2.05
2022-09-12T17:23:59.240Z,2.45
2022-09-12T17:26:26.713Z,3.90
2022-09-12T17:28:53.584Z,2.85
2022-09-12T17:31:20.703Z,2.70
2022-09-12T17:33:47.917Z,2.45
2022-09-12T17:36:17.798Z,2.58
2022-09-12T17:38:46.347Z,2.28
2022-09-12T17:41:23.530Z,2.38
2022-09-12T17:43:55.607Z,2.20
2022-09-12T17:46:31.043Z,2.15
2022-09-12T17:48:58.337Z,2.38
2022-09-12T17:51:30.578Z,3.58
2022-09-12T17:54:08.552Z,2.63
2022-09-12T17:56:37.252Z,3.75
2022-09-12T17:59:07.258Z,3.70
2022-09-12T18:01:53.006Z,2.58
2022-09-12T18:04:20.125Z,2.25
2022-09-12T18:06:48.849Z,2.05
2022-09-12T18:09:24.827Z,3.10
2022-09-12T18:11:53.000Z,2.58
2022-09-12T18:14:21.122Z,2.33
2022-09-12T18:16:48.216Z,2.63
2022-09-12T18:19:15.441Z,2.85
2022-09-12T18:21:42.211Z,3.97
2022-09-12T18:24:10.186Z,2.63
2022-09-12T18:26:37.173Z,5.88
2022-09-12T18:29:04.746Z,2.10
2022-09-12T18:31:31.799Z,3.55
2022-09-12T18:34:00.363Z,1.98
2022-09-12T18:36:28.486Z,2.00
2022-09-12T18:38:58.625Z,3.55
2022-09-12T18:41:26.261Z,2.60
2022-09-12T18:44:01.466Z,1.80
2022-09-12T18:46:30.599Z,2.63
2022-09-12T18:48:58.814Z,1.90
2022-09-12T18:51:34.169Z,2.17
2022-09-12T18:54:10.916Z,2.22
2022-09-12T18:56:40.866Z,2.72
2022-09-12T18:59:07.933Z,4.22
2022-09-12T19:01:37.915Z,2.17
2022-09-12T19:04:09.804Z,3.88
2022-09-12T19:06:54.536Z,2.60
2022-09-12T19:09:21.422Z,6.43
2022-09-12T19:11:49.941Z,4.05
2022-09-12T19:14:22.570Z,6.63
2022-09-12T19:16:53.404Z,5.00
2022-09-12T19:19:23.888Z,6.68
2022-09-12T19:21:50.729Z,4.47
2022-09-12T19:24:18.126Z,4.80
2022-09-12T19:26:45.660Z,4.88
2022-09-12T19:29:14.329Z,2.78
2022-09-12T19:31:41.717Z,3.47
2022-09-12T19:34:12.513Z,3.83
2022-09-12T19:36:45.262Z,3.30
2022-09-12T19:39:15.333Z,2.47
2022-09-12T19:41:42.665Z,2.70
2022-09-12T19:44:09.676Z,6.55
2022-09-12T19:46:36.643Z,3.70
2022-09-12T19:49:04.030Z,3.17
2022-09-12T19:51:31.221Z,3.80
2022-09-12T19:53:58.020Z,3.15
2022-09-12T19:56:24.832Z,5.93
2022-09-12T19:58:56.060Z,4.25
2022-09-12T20:01:30.889Z,9.00
2022-09-12T20:04:00.012Z,5.30
2022-09-12T20:06:28.010Z,7.47
2022-09-12T20:08:56.022Z,6.65
2022-09-12T20:11:25.484Z,5.97
2022-09-12T20:13:52.816Z,3.33
2022-09-12T20:16:29.084Z,9.73
2022-09-12T20:19:02.563Z,2.35
2022-09-12T20:21:32.616Z,3.97
2022-09-12T20:24:01.744Z,5.32
2022-09-12T20:26:28.610Z,5.05
2022-09-12T20:28:55.520Z,4.38
2022-09-12T20:31:22.468Z,3.08
2022-09-12T20:33:51.779Z,2.53
2022-09-12T20:36:21.470Z,4.63
2022-09-12T20:38:56.640Z,6.63
2022-09-12T20:41:25.607Z,4.80
2022-09-12T20:43:54.246Z,2.63
2022-09-12T20:46:22.715Z,5.72
2022-09-12T20:48:51.295Z,3.88
2022-09-12T20:51:20.405Z,3.13
2022-09-12T20:53:52.935Z,3.00
2022-09-12T20:56:19.976Z,4.13
2022-09-12T20:58:46.741Z,4.32
2022-09-12T21:01:15.996Z,8.77
2022-09-12T21:03:44.596Z,6.93
2022-09-12T21:06:14.415Z,2.88
2022-09-12T21:08:41.265Z,4.80
2022-09-12T21:11:08.780Z,2.25
2022-09-12T21:13:36.966Z,6.07
2022-09-12T21:16:14.061Z,9.10
2022-09-12T21:18:41.711Z,2.28
2022-09-12T21:21:11.664Z,2.03
2022-09-12T21:23:38.738Z,4.57
2022-09-12T21:26:08.926Z,5.30
2022-09-12T21:28:35.991Z,3.53
2022-09-12T21:31:03.355Z,5.90
2022-09-12T21:33:31.397Z,6.40
2022-09-12T21:36:04.252Z,6.50
2022-09-12T21:38:32.365Z,5.43
2022-09-12T21:41:11.924Z,3.70
2022-09-12T21:43:40.018Z,4.77
2022-09-12T21:46:09.707Z,7.97
2022-09-12T21:48:37.445Z,5.13
2022-09-12T21:51:04.963Z,3.23
2022-09-12T21:53:32.124Z,4.37
2022-09-12T21:56:05.334Z,3.07
2022-09-12T21:58:32.121Z,5.70
2022-09-12T22:01:00.420Z,4.40
2022-09-12T22:03:28.686Z,2.10
2022-09-12T22:06:05.166Z,2.20
2022-09-12T22:08:34.327Z,6.47
2022-09-12T22:11:09.164Z,3.37
2022-09-12T22:13:39.200Z,2.37
2022-09-12T22:16:09.472Z,2.40
2022-09-12T22:18:37.345Z,2.40
2022-09-12T22:21:08.849Z,3.77
2022-09-12T22:23:54.506Z,3.30
2022-09-12T22:26:21.618Z,6.50
2022-09-12T22:28:49.196Z,2.23
2022-09-12T22:31:17.335Z,4.97
2022-09-12T22:33:45.136Z,2.93
2022-09-12T22:36:12.656Z,5.97
2022-09-12T22:38:39.793Z,4.47
2022-09-12T22:41:10.545Z,4.93
2022-09-12T22:43:37.582Z,2.47
2022-09-12T22:46:09.459Z,7.13
2022-09-12T22:48:37.769Z,3.10
2022-09-12T22:51:05.258Z,2.40
2022-09-12T22:53:32.531Z,4.03
2022-09-12T22:55:59.258Z,2.50
2022-09-12T22:58:26.009Z,3.00
2022-09-12T23:00:52.867Z,6.40
2022-09-12T23:03:21.350Z,3.50
2022-09-12T23:05:48.763Z,4.90
2022-09-12T23:08:19.280Z,3.37
2022-09-12T23:10:46.673Z,3.53
2022-09-12T23:13:13.641Z,3.53
2022-09-12T23:15:40.966Z,3.33
2022-09-12T23:18:08.368Z,2.53
2022-09-12T23:20:35.075Z,3.60
2022-09-12T23:23:01.784Z,4.13
2022-09-12T23:25:28.569Z,2.60
2022-09-12T23:27:55.280Z,2.50
2022-09-12T23:30:22.130Z,3.40
2022-09-12T23:32:49.712Z,5.63
2022-09-12T23:35:20.423Z,4.00
2022-09-12T23:37:47.672Z,3.50
2022-09-12T23:40:14.796Z,3.17
2022-09-12T23:42:41.617Z,3.37
2022-09-12T23:45:09.949Z,4.27
2022-09-12T23:47:36.659Z,3.43
2022-09-12T23:50:03.782Z,4.83
2022-09-12T23:52:30.802Z,2.53
2022-09-12T23:54:57.630Z,5.13
2022-09-12T23:57:24.392Z,2.80
2022-09-12T23:59:51.281Z,3.37
